createdAt,value
2022-09-18T00:02:05.187Z,100.00
2022-09-18T00:04:34.007Z,100.00
2022-09-18T00:07:02.827Z,100.00
2022-09-18T00:09:31.870Z,100.00
2022-09-18T00:12:00.707Z,100.00
2022-09-18T00:14:29.416Z,100.00
2022-09-18T00:16:59.607Z,100.00
2022-09-18T00:19:28.833Z,100.00
2022-09-18T00:21:58.348Z,100.00
2022-09-18T00:24:27.121Z,100.00
2022-09-18T00:26:55.829Z,100.00
2022-09-18T00:29:25.168Z,100.00
2022-09-18T00:31:55.039Z,100.00
2022-09-18T00:34:25.426Z,100.00
2022-09-18T00:36:54.334Z,100.00
2022-09-18T00:39:23.496Z,100.00
2022-09-18T00:41:52.296Z,100.00
2022-09-18T00:44:40.385Z,100.00
2022-09-18T00:47:33.821Z,100.00
2022-09-18T00:50:08.886Z,100.00
2022-09-18T00:52:47.833Z,100.00
2022-09-18T00:55:17.638Z,100.00
2022-09-18T00:57:50.764Z,100.00
2022-09-18T01:00:19.590Z,100.00
2022-09-18T01:02:49.157Z,100.00
2022-09-18T01:05:27.949Z,100.00
2022-09-18T01:08:18.291Z,100.00
2022-09-18T01:11:02.004Z,100.00
2022-09-18T01:13:34.466Z,100.00
2022-09-18T01:16:10.242Z,100.00
2022-09-18T01:18:48.450Z,100.00
2022-09-18T01:21:21.362Z,100.00
2022-09-18T01:24:29.837Z,100.00
2022-09-18T01:27:02.841Z,100.00
2022-09-18T01:29:46.742Z,100.00
2022-09-18T01:32:23.476Z,100.00
2022-09-18T01:35:09.620Z,100.00
2022-09-18T01:37:51.516Z,100.00
2022-09-18T01:40:26.103Z,100.00
2022-09-18T01:42:57.875Z,100.00
2022-09-18T01:45:31.434Z,100.00
2022-09-18T01:48:05.086Z,100.00
2022-09-18T01:50:40.227Z,100.00
2022-09-18T01:53:16.531Z,100.00
2022-09-18T01:55:51.786Z,100.00
2022-09-18T01:58:25.305Z,100.00
2022-09-18T02:00:59.058Z,100.00
2022-09-18T02:03:31.134Z,100.00
2022-09-18T02:06:06.332Z,100.00
2022-09-18T02:08:41.909Z,100.00
2022-09-18T02:11:13.480Z,100.00
2022-09-18T02:13:45.837Z,100.00
2022-09-18T02:16:23.971Z,100.00
2022-09-18T02:18:57.285Z,100.00
2022-09-18T02:21:29.645Z,100.00
2022-09-18T02:24:04.427Z,100.00
2022-09-18T02:26:36.703Z,100.00
2022-09-18T02:29:08.004Z,100.00
2022-09-18T02:31:38.956Z,100.00
2022-09-18T02:34:09.651Z,100.00
2022-09-18T02:37:12.499Z,100.00
2022-09-18T02:39:56.367Z,100.00
2022-09-18T02:42:41.264Z,100.00
2022-09-18T02:45:21.821Z,100.00
2022-09-18T02:48:06.770Z,100.00
2022-09-18T02:50:49.075Z,100.00
2022-09-18T02:53:25.651Z,100.00
2022-09-18T02:56:02.697Z,100.00
2022-09-18T02:58:39.811Z,100.00
2022-09-18T03:01:11.720Z,100.00
2022-09-18T03:03:42.230Z,100.00
2022-09-18T03:06:13.174Z,100.00
2022-09-18T03:08:42.214Z,100.00
2022-09-18T03:11:11.059Z,100.00
2022-09-18T03:13:39.774Z,100.00
2022-09-18T03:16:08.533Z,100.00
2022-09-18T03:18:37.414Z,100.00
2022-09-18T03:21:07.743Z,100.00
2022-09-18T03:23:36.519Z,100.00
2022-09-18T03:26:19.235Z,100.00
2022-09-18T03:28:48.573Z,100.00
2022-09-18T03:31:18.501Z,100.00
2022-09-18T03:33:48.303Z,100.00
2022-09-18T03:36:18.652Z,100.00
2022-09-18T03:38:47.492Z,100.00
2022-09-18T03:41:16.418Z,100.00
2022-09-18T03:43:45.370Z,100.00
2022-09-18T03:46:14.874Z,100.00
2022-09-18T03:48:43.720Z,100.00
2022-09-18T03:51:12.406Z,100.00
2022-09-18T03:53:42.589Z,100.00
2022-09-18T03:56:31.676Z,100.00
2022-09-18T03:59:18.914Z,100.00
2022-09-18T04:02:08.014Z,100.00
2022-09-18T04:04:55.670Z,100.00
2022-09-18T04:07:42.902Z,100.00
2022-09-18T04:10:32.016Z,100.00
2022-09-18T04:13:00.738Z,100.00
2022-09-18T04:15:33.929Z,100.00
2022-09-18T04:18:03.097Z,100.00
2022-09-18T04:20:31.935Z,100.00
2022-09-18T04:23:02.262Z,100.00
2022-09-18T04:25:32.463Z,100.00
2022-09-18T04:28:01.165Z,100.00
2022-09-18T04:30:30.469Z,100.00
2022-09-18T04:32:59.499Z,100.00
2022-09-18T04:35:28.766Z,100.00
2022-09-18T04:37:57.787Z,100.00
2022-09-18T04:40:27.006Z,100.00
2022-09-18T04:42:57.377Z,100.00
2022-09-18T04:45:26.170Z,100.00
2022-09-18T04:47:54.874Z,100.00
2022-09-18T04:50:26.158Z,100.00
2022-09-18T04:53:17.578Z,100.00
2022-09-18T04:55:49.415Z,100.00
2022-09-18T04:58:21.193Z,100.00
2022-09-18T05:00:56.340Z,100.00
2022-09-18T05:03:25.394Z,100.00
2022-09-18T05:05:55.211Z,100.00
2022-09-18T05:08:24.205Z,100.00
2022-09-18T05:10:53.328Z,100.00
2022-09-18T05:13:24.274Z,100.00
2022-09-18T05:16:04.514Z,100.00
2022-09-18T05:18:35.075Z,100.00
2022-09-18T05:21:06.387Z,100.00
2022-09-18T05:23:36.230Z,100.00
2022-09-18T05:26:05.441Z,100.00
2022-09-18T05:28:35.617Z,100.00
2022-09-18T05:31:04.816Z,100.00
2022-09-18T05:33:46.299Z,100.00
2022-09-18T05:36:15.787Z,100.00
2022-09-18T05:38:48.532Z,100.00
2022-09-18T05:41:20.037Z,100.00
2022-09-18T05:43:50.548Z,100.00
2022-09-18T05:46:19.642Z,100.00
2022-09-18T05:48:56.744Z,100.00
2022-09-18T05:51:26.256Z,100.00
2022-09-18T05:53:55.354Z,100.00
2022-09-18T05:56:33.244Z,100.00
2022-09-18T05:59:04.523Z,100.00
2022-09-18T06:01:33.829Z,100.00
2022-09-18T06:04:18.542Z,100.00
2022-09-18T06:07:15.857Z,100.00
2022-09-18T06:09:44.773Z,100.00
2022-09-18T06:12:14.184Z,100.00
2022-09-18T06:14:44.487Z,100.00
2022-09-18T06:17:13.403Z,100.00
2022-09-18T06:19:42.467Z,100.00
2022-09-18T06:22:12.211Z,100.00
2022-09-18T06:24:41.147Z,100.00
2022-09-18T06:27:13.043Z,100.00
2022-09-18T06:29:43.658Z,100.00
2022-09-18T06:32:25.192Z,100.00
2022-09-18T06:34:56.117Z,100.00
2022-09-18T06:37:27.269Z,100.00
2022-09-18T06:40:10.903Z,100.00
2022-09-18T06:43:05.761Z,100.00
2022-09-18T06:45:54.902Z,100.00
2022-09-18T06:48:27.209Z,100.00
2022-09-18T06:50:57.650Z,100.00
2022-09-18T06:53:28.152Z,100.00
2022-09-18T06:56:03.712Z,100.00
2022-09-18T06:58:36.869Z,100.00
2022-09-18T07:01:07.783Z,100.00
2022-09-18T07:03:42.733Z,100.00
2022-09-18T07:06:17.138Z,100.00
2022-09-18T07:08:49.324Z,100.00
2022-09-18T07:11:37.986Z,100.00
2022-09-18T07:14:07.869Z,100.00
2022-09-18T07:16:38.390Z,100.00
2022-09-18T07:19:07.949Z,100.00
2022-09-18T07:21:38.882Z,100.00
2022-09-18T07:24:08.582Z,100.00
2022-09-18T07:26:37.908Z,100.00
2022-09-18T07:29:10.243Z,100.00
2022-09-18T07:31:41.427Z,100.00
2022-09-18T07:34:12.870Z,100.00
2022-09-18T07:36:41.858Z,100.00
2022-09-18T07:39:10.756Z,100.00
2022-09-18T07:42:06.800Z,100.00
2022-09-18T07:44:38.600Z,100.00
2022-09-18T07:47:09.309Z,100.00
2022-09-18T07:49:41.256Z,100.00
2022-09-18T07:52:11.112Z,100.00
2022-09-18T07:54:47.874Z,100.00
2022-09-18T07:57:32.981Z,100.00
2022-09-18T08:00:23.365Z,100.00
2022-09-18T08:03:02.672Z,100.00
2022-09-18T08:05:54.559Z,100.00
2022-09-18T08:08:23.519Z,100.00
2022-09-18T08:11:31.191Z,100.00
2022-09-18T08:14:10.895Z,100.00
2022-09-18T08:16:42.743Z,100.00
2022-09-18T08:19:27.877Z,100.00
2022-09-18T08:22:26.232Z,100.00
2022-09-18T08:24:58.579Z,100.00
2022-09-18T08:27:27.672Z,100.00
2022-09-18T08:29:58.056Z,100.00
2022-09-18T08:32:27.153Z,100.00
2022-09-18T08:35:00.276Z,100.00
2022-09-18T08:37:33.434Z,100.00
2022-09-18T08:40:24.588Z,100.00
2022-09-18T08:43:09.692Z,100.00
2022-09-18T08:45:53.881Z,100.00
2022-09-18T08:48:25.893Z,100.00
2022-09-18T08:51:01.870Z,100.00
2022-09-18T08:53:36.509Z,100.00
2022-09-18T08:56:31.093Z,100.00
2022-09-18T08:59:35.202Z,100.00
2022-09-18T09:02:25.066Z,100.00
2022-09-18T09:05:02.433Z,100.00
2022-09-18T09:07:53.355Z,100.00
2022-09-18T09:10:39.235Z,100.00
2022-09-18T09:13:28.286Z,100.00
2022-09-18T09:16:03.758Z,100.00
2022-09-18T09:18:44.123Z,100.00
2022-09-18T09:21:22.342Z,100.00
2022-09-18T09:24:17.450Z,100.00
2022-09-18T09:27:22.514Z,100.00
2022-09-18T09:30:28.044Z,100.00
2022-09-18T09:33:21.407Z,100.00
2022-09-18T09:36:11.013Z,100.00
2022-09-18T09:39:07.435Z,100.00
2022-09-18T09:41:44.036Z,100.00
2022-09-18T09:44:29.280Z,100.00
2022-09-18T09:47:25.158Z,100.00
2022-09-18T09:50:07.669Z,100.00
2022-09-18T09:52:40.885Z,100.00
2022-09-18T09:55:31.000Z,100.00
2022-09-18T09:58:13.718Z,100.00
2022-09-18T10:00:51.959Z,100.00
2022-09-18T10:03:35.109Z,100.00
2022-09-18T10:06:14.417Z,100.00
2022-09-18T10:08:49.092Z,100.00
2022-09-18T10:11:19.542Z,100.00
2022-09-18T10:14:00.399Z,100.00
2022-09-18T10:16:35.176Z,100.00
2022-09-18T10:19:05.515Z,100.00
2022-09-18T10:21:37.609Z,100.00
2022-09-18T10:24:18.841Z,100.00
2022-09-18T10:26:54.816Z,100.00
2022-09-18T10:29:23.600Z,100.00
2022-09-18T10:31:58.278Z,100.00
2022-09-18T10:34:40.532Z,100.00
2022-09-18T10:37:16.742Z,100.00
2022-09-18T10:39:52.152Z,100.00
2022-09-18T10:42:25.731Z,100.00
2022-09-18T10:45:04.970Z,100.00
2022-09-18T10:47:38.454Z,100.00
2022-09-18T10:50:19.284Z,100.00
2022-09-18T10:52:54.284Z,100.00
2022-09-18T10:55:32.838Z,100.00
2022-09-18T10:58:14.965Z,100.00
2022-09-18T11:00:56.532Z,100.00
2022-09-18T11:03:39.158Z,100.00
2022-09-18T11:06:16.193Z,100.00
2022-09-18T11:08:50.763Z,100.00
2022-09-18T11:11:27.478Z,100.00
2022-09-18T11:14:01.933Z,100.00
2022-09-18T11:16:44.127Z,100.00
2022-09-18T11:19:24.939Z,100.00
2022-09-18T11:21:56.416Z,100.00
2022-09-18T11:24:28.115Z,100.00
2022-09-18T11:27:20.242Z,100.00
2022-09-18T11:29:51.114Z,100.00
2022-09-18T11:32:22.874Z,100.00
2022-09-18T11:34:55.122Z,100.00
2022-09-18T11:37:31.934Z,100.00
2022-09-18T11:40:06.432Z,100.00
2022-09-18T11:42:42.780Z,100.00
2022-09-18T11:45:33.843Z,100.00
2022-09-18T11:48:16.804Z,100.00
2022-09-18T11:50:48.111Z,100.00
2022-09-18T11:53:21.753Z,100.00
2022-09-18T11:56:01.298Z,100.00
2022-09-18T11:58:35.894Z,100.00
2022-09-18T12:01:15.880Z,100.00
2022-09-18T12:03:51.994Z,100.00
2022-09-18T12:06:30.037Z,100.00
2022-09-18T12:09:04.803Z,100.00
2022-09-18T12:11:42.843Z,100.00
2022-09-18T12:14:18.830Z,100.00
2022-09-18T12:17:13.148Z,100.00
2022-09-18T12:19:48.503Z,100.00
2022-09-18T12:22:23.942Z,100.00
2022-09-18T12:24:53.581Z,100.00
2022-09-18T12:27:48.527Z,100.00
2022-09-18T12:30:20.023Z,97.55
2022-09-18T12:33:08.904Z,93.51
2022-09-18T12:35:51.045Z,95.63
2022-09-18T12:38:33.700Z,98.61
2022-09-18T12:41:17.218Z,96.33
2022-09-18T12:44:05.862Z,95.25
2022-09-18T12:46:45.247Z,95.63
2022-09-18T12:49:40.303Z,94.08
2022-09-18T12:52:23.885Z,95.06
2022-09-18T12:55:15.992Z,91.29
2022-09-18T12:57:57.518Z,88.36
2022-09-18T13:00:29.504Z,91.58
2022-09-18T13:03:04.680Z,90.63
2022-09-18T13:05:38.823Z,92.75
2022-09-18T13:08:13.076Z,94.79
2022-09-18T13:10:44.064Z,91.86
2022-09-18T13:13:17.548Z,97.29
2022-09-18T13:15:50.818Z,97.21
2022-09-18T13:18:32.343Z,95.23
2022-09-18T13:21:07.463Z,95.84
2022-09-18T13:23:40.636Z,97.64
2022-09-18T13:26:13.903Z,96.99
2022-09-18T13:28:43.721Z,94.26
2022-09-18T13:31:31.638Z,96.81
2022-09-18T13:34:04.537Z,98.27
2022-09-18T13:36:37.811Z,97.04
2022-09-18T13:39:16.182Z,96.96
2022-09-18T13:41:47.569Z,99.39
2022-09-18T13:44:21.590Z,95.88
2022-09-18T13:46:52.078Z,95.11
2022-09-18T13:49:23.863Z,97.34
2022-09-18T13:51:54.318Z,97.64
2022-09-18T13:54:30.070Z,95.66
2022-09-18T13:57:19.984Z,97.29
2022-09-18T13:59:52.022Z,96.50
2022-09-18T14:02:31.077Z,100.00
2022-09-18T14:05:03.082Z,100.00
2022-09-18T14:07:55.320Z,100.00
2022-09-18T14:11:16.825Z,99.03
2022-09-18T14:13:51.967Z,100.00
2022-09-18T14:16:40.994Z,100.00
2022-09-18T14:19:28.315Z,100.00
2022-09-18T14:21:57.995Z,100.00
2022-09-18T14:25:00.840Z,100.00
2022-09-18T14:27:50.933Z,98.32
2022-09-18T14:30:22.966Z,100.00
2022-09-18T14:33:04.997Z,100.00
2022-09-18T14:35:45.252Z,100.00
2022-09-18T14:38:24.308Z,100.00
2022-09-18T14:41:01.135Z,100.00
2022-09-18T14:43:30.154Z,100.00
2022-09-18T14:45:59.167Z,100.00
2022-09-18T14:48:30.634Z,100.00
2022-09-18T14:51:01.871Z,100.00
2022-09-18T14:53:31.970Z,100.00
2022-09-18T14:56:05.800Z,100.00
2022-09-18T14:58:38.152Z,100.00
2022-09-18T15:01:10.141Z,99.78
2022-09-18T15:03:41.524Z,100.00
2022-09-18T15:06:17.253Z,100.00
2022-09-18T15:08:49.374Z,100.00
2022-09-18T15:11:23.253Z,100.00
2022-09-18T15:13:54.707Z,100.00
2022-09-18T15:16:28.582Z,100.00
2022-09-18T15:18:58.481Z,100.00
2022-09-18T15:21:33.053Z,100.00
2022-09-18T15:24:04.091Z,100.00
2022-09-18T15:26:40.282Z,100.00
2022-09-18T15:29:18.696Z,100.00
2022-09-18T15:31:47.999Z,99.74
2022-09-18T15:34:21.103Z,97.47
2022-09-18T15:36:57.166Z,98.66
2022-09-18T15:39:32.775Z,98.01
2022-09-18T15:42:20.038Z,97.25
2022-09-18T15:45:20.357Z,99.31
2022-09-18T15:47:50.318Z,98.61
2022-09-18T15:50:44.391Z,98.64
2022-09-18T15:53:30.851Z,99.41
2022-09-18T15:56:07.975Z,99.93
2022-09-18T15:58:47.075Z,100.00
2022-09-18T16:01:23.397Z,100.00
2022-09-18T16:04:04.515Z,100.00
2022-09-18T16:06:42.788Z,100.00
2022-09-18T16:09:25.522Z,100.00
2022-09-18T16:11:54.831Z,100.00
2022-09-18T16:14:42.189Z,100.00
2022-09-18T16:17:37.248Z,100.00
2022-09-18T16:20:25.986Z,100.00
2022-09-18T16:22:58.464Z,100.00
2022-09-18T16:25:29.635Z,100.00
2022-09-18T16:28:00.318Z,100.00
2022-09-18T16:30:30.570Z,100.00
2022-09-18T16:33:18.690Z,100.00
2022-09-18T16:35:49.204Z,100.00
2022-09-18T16:38:18.338Z,100.00
2022-09-18T16:40:48.420Z,100.00
2022-09-18T16:43:17.395Z,100.00
2022-09-18T16:45:48.692Z,100.00
2022-09-18T16:48:18.245Z,100.00
2022-09-18T16:50:48.057Z,100.00
2022-09-18T16:53:17.683Z,100.00
2022-09-18T16:55:50.932Z,100.00
2022-09-18T16:58:22.290Z,100.00
2022-09-18T17:00:52.725Z,100.00
2022-09-18T17:03:21.776Z,100.00
2022-09-18T17:05:50.566Z,100.00
2022-09-18T17:08:19.395Z,100.00
2022-09-18T17:10:48.532Z,100.00
2022-09-18T17:13:17.386Z,100.00
2022-09-18T17:15:46.351Z,100.00
2022-09-18T17:18:16.668Z,100.00
2022-09-18T17:20:46.173Z,100.00
2022-09-18T17:23:15.155Z,100.00
2022-09-18T17:25:44.003Z,100.00
2022-09-18T17:28:12.884Z,100.00
2022-09-18T17:30:43.265Z,100.00
2022-09-18T17:33:12.221Z,100.00
2022-09-18T17:35:42.613Z,100.00
2022-09-18T17:38:11.502Z,100.00
2022-09-18T17:40:40.547Z,100.00
2022-09-18T17:43:09.520Z,100.00
2022-09-18T17:45:38.547Z,100.00
2022-09-18T17:48:07.388Z,100.00
2022-09-18T17:50:36.311Z,100.00
2022-09-18T17:53:06.800Z,100.00
2022-09-18T17:55:35.804Z,100.00
2022-09-18T17:58:05.088Z,100.00
2022-09-18T18:00:33.993Z,100.00
2022-09-18T18:03:02.987Z,100.00
2022-09-18T18:05:31.968Z,100.00
2022-09-18T18:08:00.842Z,100.00
2022-09-18T18:10:31.322Z,100.00
2022-09-18T18:13:00.273Z,100.00
2022-09-18T18:15:29.367Z,100.00
2022-09-18T18:17:58.258Z,100.00
2022-09-18T18:20:27.251Z,100.00
2022-09-18T18:22:56.117Z,100.00
2022-09-18T18:25:25.826Z,100.00
2022-09-18T18:27:56.625Z,100.00
2022-09-18T18:30:26.458Z,100.00
2022-09-18T18:32:56.331Z,100.00
2022-09-18T18:35:25.319Z,100.00
2022-09-18T18:37:54.196Z,100.00
2022-09-18T18:40:24.021Z,100.00
2022-09-18T18:42:52.771Z,100.00
2022-09-18T18:45:23.897Z,100.00
2022-09-18T18:47:52.715Z,100.00
2022-09-18T18:50:22.540Z,100.00
2022-09-18T18:52:53.876Z,100.00
2022-09-18T18:55:22.919Z,100.00
2022-09-18T18:57:52.788Z,100.00
2022-09-18T19:00:27.448Z,100.00
2022-09-18T19:02:56.246Z,100.00
2022-09-18T19:05:30.479Z,100.00
2022-09-18T19:07:59.694Z,100.00
2022-09-18T19:10:29.620Z,100.00
2022-09-18T19:12:58.834Z,100.00
2022-09-18T19:15:29.647Z,100.00
2022-09-18T19:17:59.359Z,100.00
2022-09-18T19:20:28.101Z,100.00
2022-09-18T19:22:58.050Z,100.00
2022-09-18T19:25:27.951Z,100.00
2022-09-18T19:27:57.388Z,100.00
2022-09-18T19:30:27.326Z,100.00
2022-09-18T19:32:57.611Z,100.00
2022-09-18T19:35:26.361Z,100.00
2022-09-18T19:37:55.196Z,100.00
2022-09-18T19:40:24.244Z,100.00
2022-09-18T19:43:00.347Z,100.00
2022-09-18T19:45:32.964Z,100.00
2022-09-18T19:48:05.058Z,100.00
2022-09-18T19:50:37.813Z,100.00
2022-09-18T19:53:06.882Z,100.00
2022-09-18T19:55:35.819Z,100.00
2022-09-18T19:58:04.518Z,100.00
2022-09-18T20:00:33.251Z,100.00
2022-09-18T20:03:03.388Z,100.00
2022-09-18T20:05:33.383Z,100.00
2022-09-18T20:08:03.961Z,100.00
2022-09-18T20:10:32.848Z,100.00
2022-09-18T20:13:01.539Z,100.00
2022-09-18T20:15:30.342Z,100.00
2022-09-18T20:17:59.737Z,100.00
2022-09-18T20:20:30.452Z,100.00
2022-09-18T20:22:59.278Z,100.00
2022-09-18T20:25:28.093Z,100.00
2022-09-18T20:27:56.838Z,100.00
2022-09-18T20:30:26.167Z,100.00
2022-09-18T20:32:55.741Z,100.00
2022-09-18T20:35:24.443Z,100.00
2022-09-18T20:37:56.336Z,100.00
2022-09-18T20:40:25.151Z,100.00
2022-09-18T20:42:54.005Z,100.00
2022-09-18T20:45:23.252Z,100.00
2022-09-18T20:47:52.012Z,100.00
2022-09-18T20:50:25.784Z,100.00
2022-09-18T20:52:55.900Z,100.00
2022-09-18T20:55:25.064Z,100.00
2022-09-18T20:57:53.802Z,100.00
2022-09-18T21:00:22.685Z,100.00
2022-09-18T21:02:53.495Z,100.00
2022-09-18T21:05:22.249Z,100.00
2022-09-18T21:07:57.495Z,100.00
2022-09-18T21:10:29.247Z,100.00
2022-09-18T21:12:58.891Z,100.00
2022-09-18T21:15:28.819Z,100.00
2022-09-18T21:17:57.589Z,100.00
2022-09-18T21:20:26.908Z,100.00
2022-09-18T21:23:09.423Z,100.00
2022-09-18T21:25:39.627Z,100.00
2022-09-18T21:28:08.732Z,100.00
2022-09-18T21:30:37.333Z,100.00
2022-09-18T21:33:08.775Z,100.00
2022-09-18T21:35:37.431Z,100.00
2022-09-18T21:38:08.565Z,100.00
2022-09-18T21:40:40.456Z,100.00
2022-09-18T21:43:09.923Z,100.00
2022-09-18T21:45:38.732Z,100.00
2022-09-18T21:48:07.543Z,100.00
2022-09-18T21:50:36.734Z,100.00
2022-09-18T21:53:05.536Z,100.00
2022-09-18T21:55:37.853Z,100.00
2022-09-18T21:58:08.327Z,100.00
2022-09-18T22:00:37.032Z,100.00
2022-09-18T22:03:05.987Z,100.00
2022-09-18T22:05:36.619Z,100.00
2022-09-18T22:08:05.488Z,100.00
2022-09-18T22:10:35.389Z,100.00
2022-09-18T22:13:04.192Z,100.00
2022-09-18T22:15:34.290Z,100.00
2022-09-18T22:18:03.086Z,100.00
2022-09-18T22:20:31.775Z,100.00
2022-09-18T22:23:00.503Z,100.00
2022-09-18T22:25:30.206Z,100.00
2022-09-18T22:27:59.147Z,100.00
2022-09-18T22:30:27.930Z,100.00
2022-09-18T22:32:58.236Z,100.00
2022-09-18T22:35:27.030Z,100.00
2022-09-18T22:37:56.224Z,100.00
2022-09-18T22:40:25.703Z,100.00
2022-09-18T22:42:54.616Z,100.00
2022-09-18T22:45:23.533Z,100.00
2022-09-18T22:47:52.276Z,100.00
2022-09-18T22:50:22.658Z,100.00
2022-09-18T22:52:51.449Z,100.00
2022-09-18T22:55:21.920Z,100.00
2022-09-18T22:57:50.904Z,100.00
2022-09-18T23:00:19.812Z,100.00
2022-09-18T23:02:48.481Z,100.00
2022-09-18T23:05:17.777Z,100.00
2022-09-18T23:07:49.384Z,100.00
2022-09-18T23:10:18.390Z,100.00
2022-09-18T23:12:47.384Z,100.00
2022-09-18T23:15:16.137Z,100.00
2022-09-18T23:17:45.421Z,100.00
2022-09-18T23:20:15.538Z,100.00
2022-09-18T23:22:45.019Z,100.00
2022-09-18T23:25:15.348Z,100.00
2022-09-18T23:27:44.238Z,100.00
2022-09-18T23:30:13.414Z,100.00
2022-09-18T23:32:42.101Z,100.00
2022-09-18T23:35:11.295Z,100.00
2022-09-18T23:37:40.096Z,100.00
2022-09-18T23:40:10.455Z,100.00
2022-09-18T23:42:40.738Z,100.00
2022-09-18T23:45:10.582Z,100.00
2022-09-18T23:47:39.264Z,100.00
2022-09-18T23:50:08.869Z,100.00
2022-09-18T23:52:37.615Z,100.00
2022-09-18T23:55:06.981Z,100.00
2022-09-18T23:57:36.155Z,100.00
